Time;durP1;ratioP1;P1;durP2;ratioP2;P2;SDS_P1;SDS_P2;PMS_P1;PMS_P2;Temp;Humidity;BMP_temperature;BMP_pressure;BME280_temperature;BME280_humidity;BME280_pressure;Samples;Min_cycle;Max_cycle;Signal;HPM_P1;HPM_P2
2022/10/14 00:01:39;;;;;;;70.15;43.60;;;12.80;99.90;;;;;;4991917;28;20481;-92
2022/10/14 00:04:05;;;;;;;79.90;43.67;;;12.80;99.90;;;;;;4991862;28;20843;-92
2022/10/14 00:06:32;;;;;;;83.30;43.95;;;12.70;99.90;;;;;;4989710;28;20035;-91
2022/10/14 00:09:01;;;;;;;84.45;42.97;;;12.70;99.90;;;;;;5001900;28;20070;-91
2022/10/14 00:11:29;;;;;;;61.78;39.78;;;12.70;99.90;;;;;;4989194;28;20108;-92
2022/10/14 00:13:56;;;;;;;117.47;45.70;;;12.60;99.90;;;;;;4980948;28;20824;-93
2022/10/14 00:16:28;;;;;;;66.10;39.90;;;12.50;99.90;;;;;;4986098;28;20098;-92
2022/10/14 00:18:56;;;;;;;74.53;40.63;;;12.50;99.90;;;;;;4966786;28;20046;-91
2022/10/14 00:21:22;;;;;;;61.35;38.40;;;12.40;99.90;;;;;;4984046;28;20085;-92
2022/10/14 00:23:48;;;;;;;83.65;40.13;;;12.40;99.90;;;;;;4979250;28;20042;-92
2022/10/14 00:26:26;;;;;;;64.70;36.08;;;12.40;99.90;;;;;;4982638;28;20088;-92
2022/10/14 00:28:52;;;;;;;72.32;35.28;;;12.30;99.90;;;;;;4980325;28;21243;-92
2022/10/14 00:31:18;;;;;;;76.03;37.10;;;12.20;99.90;;;;;;4981087;28;20038;-93
2022/10/14 00:33:44;;;;;;;58.90;34.97;;;12.10;99.90;;;;;;4964307;28;20035;-91
2022/10/14 00:36:13;;;;;;;102.18;39.22;;;12.10;99.90;;;;;;4978113;28;20125;-91
2022/10/14 00:38:38;;;;;;;135.95;43.00;;;12.00;99.90;;;;;;4967337;28;20088;-92
2022/10/14 00:41:05;;;;;;;68.03;35.72;;;12.00;99.90;;;;;;4957524;28;20121;-92
2022/10/14 00:44:08;;;;;;;82.93;34.88;;;12.00;99.90;;;;;;4956333;28;20061;-91
2022/10/14 00:46:37;;;;;;;120.13;35.70;;;12.00;99.90;;;;;;4955954;28;20126;-93
2022/10/14 00:49:08;;;;;;;292.67;48.90;;;12.00;99.90;;;;;;4977414;28;20103;-92
2022/10/14 00:51:35;;;;;;;129.48;36.65;;;12.00;99.90;;;;;;4979421;28;20853;-91
2022/10/14 00:54:01;;;;;;;248.30;42.03;;;12.00;99.90;;;;;;4981104;28;20169;-92
2022/10/14 00:56:28;;;;;;;205.98;39.67;;;12.00;99.90;;;;;;4979417;28;20117;-92
2022/10/14 00:58:55;;;;;;;125.00;34.58;;;12.00;99.90;;;;;;4979925;28;20089;-92
2022/10/14 01:01:21;;;;;;;171.13;36.42;;;12.00;99.90;;;;;;4967111;28;20034;-93
2022/10/14 01:03:46;;;;;;;163.25;32.97;;;12.00;99.90;;;;;;4972640;28;20065;-93
2022/10/14 01:06:25;;;;;;;135.68;32.35;;;12.00;99.90;;;;;;4959609;28;20065;-93
2022/10/14 01:09:03;;;;;;;159.38;31.15;;;12.00;99.90;;;;;;4965405;28;20057;-92
2022/10/14 01:11:48;;;;;;;111.32;28.73;;;11.90;99.90;;;;;;4953918;28;20046;-93
2022/10/14 01:14:23;;;;;;;137.13;33.65;;;11.90;99.90;;;;;;4976905;28;20057;-93
2022/10/14 01:17:09;;;;;;;144.00;33.50;;;11.90;99.90;;;;;;4972921;28;20030;-93
2022/10/14 01:19:47;;;;;;;85.03;29.13;;;11.90;99.90;;;;;;4984960;28;20133;-93
2022/10/14 01:22:25;;;;;;;118.22;31.60;;;11.90;99.90;;;;;;4972040;28;20062;-92
2022/10/14 01:25:14;;;;;;;177.57;33.35;;;11.90;99.90;;;;;;4959227;28;20034;-93
2022/10/14 01:28:00;;;;;;;111.90;28.48;;;11.90;99.90;;;;;;4972477;28;20799;-92
2022/10/14 01:30:46;;;;;;;123.85;31.25;;;11.80;99.90;;;;;;4957319;28;20048;-91
2022/10/14 01:33:25;;;;;;;203.98;33.50;;;11.80;99.90;;;;;;4977989;28;20427;-92
2022/10/14 01:36:19;;;;;;;206.30;34.60;;;11.80;99.90;;;;;;4959432;28;20088;-92
2022/10/14 01:38:58;;;;;;;60.72;23.65;;;11.80;99.90;;;;;;4959241;28;20038;-93
2022/10/14 01:41:24;;;;;;;129.85;28.83;;;11.80;99.90;;;;;;4993355;28;20042;-92
2022/10/14 01:43:51;;;;;;;217.35;36.15;;;11.80;99.90;;;;;;4960970;28;20050;-93
2022/10/14 01:46:20;;;;;;;89.90;25.20;;;11.80;99.90;;;;;;4982364;28;20098;-92
2022/10/14 01:48:56;;;;;;;71.82;22.73;;;11.70;99.90;;;;;;4983403;28;20042;-92
2022/10/14 01:51:28;;;;;;;48.90;22.98;;;11.80;99.90;;;;;;4969176;28;20042;-92
2022/10/14 01:54:01;;;;;;;61.40;24.33;;;11.80;99.90;;;;;;4977188;28;20046;-93
2022/10/14 01:56:30;;;;;;;111.22;25.65;;;11.80;99.90;;;;;;4975714;28;20057;-92
2022/10/14 01:58:58;;;;;;;98.00;22.25;;;11.80;99.90;;;;;;4961589;28;20058;-93
2022/10/14 02:01:24;;;;;;;145.57;23.50;;;11.70;99.90;;;;;;4983256;28;20077;-92
2022/10/14 02:03:50;;;;;;;115.40;21.58;;;11.80;99.90;;;;;;4995834;28;20057;-94
2022/10/14 02:06:36;;;;;;;214.88;29.05;;;11.70;99.90;;;;;;4978060;28;20042;-93
2022/10/14 02:09:28;;;;;;;86.32;19.30;;;11.80;99.90;;;;;;4984013;28;20057;-93
2022/10/14 02:12:12;;;;;;;78.05;19.67;;;11.70;99.90;;;;;;4940505;28;20500;-92
2022/10/14 02:15:01;;;;;;;47.40;18.77;;;11.70;99.90;;;;;;4968597;28;20038;-93
2022/10/14 02:17:35;;;;;;;106.68;21.52;;;11.70;99.90;;;;;;4974581;28;20045;-92
2022/10/14 02:20:19;;;;;;;127.68;24.90;;;11.70;99.90;;;;;;4977811;28;20514;-93
2022/10/14 02:22:50;;;;;;;160.20;26.65;;;11.70;99.90;;;;;;4986167;28;20077;-92
2022/10/14 02:25:20;;;;;;;76.25;22.30;;;11.80;99.90;;;;;;4965024;28;20164;-92
2022/10/14 02:27:48;;;;;;;47.33;18.55;;;11.70;99.90;;;;;;4964186;28;20049;-93
2022/10/14 02:30:15;;;;;;;46.50;19.85;;;11.70;99.90;;;;;;4976436;28;20049;-92
2022/10/14 02:32:42;;;;;;;63.28;20.58;;;11.70;99.90;;;;;;4989636;28;20058;-91
2022/10/14 02:35:10;;;;;;;96.35;20.88;;;11.70;99.90;;;;;;4986556;28;20125;-92
2022/10/14 02:37:38;;;;;;;59.28;18.02;;;11.60;99.90;;;;;;4961728;28;20043;-93
2022/10/14 02:40:15;;;;;;;83.35;19.30;;;11.60;99.90;;;;;;4962222;28;20751;-93
2022/10/14 02:42:41;;;;;;;105.40;22.00;;;11.60;99.90;;;;;;4966728;28;20388;-93
2022/10/14 02:45:08;;;;;;;75.38;18.90;;;11.50;99.90;;;;;;4959362;28;20046;-92
2022/10/14 02:47:34;;;;;;;73.78;19.88;;;11.50;99.90;;;;;;4959252;28;20132;-93
2022/10/14 02:50:00;;;;;;;97.15;23.35;;;11.50;99.90;;;;;;4981266;28;20476;-91
2022/10/14 02:52:26;;;;;;;71.07;21.23;;;11.50;99.90;;;;;;4990769;28;20054;-93
2022/10/14 02:54:51;;;;;;;75.25;21.05;;;11.60;99.90;;;;;;4974723;28;20039;-92
2022/10/14 02:57:17;;;;;;;78.80;21.92;;;11.50;99.90;;;;;;4978416;28;20101;-92
2022/10/14 02:59:43;;;;;;;108.90;24.65;;;11.60;99.90;;;;;;4963516;28;20567;-93
2022/10/14 03:02:09;;;;;;;66.82;20.13;;;11.60;99.90;;;;;;4962779;28;20049;-92
2022/10/14 03:04:35;;;;;;;102.55;23.13;;;11.50;99.90;;;;;;4975982;28;20047;-92
2022/10/14 03:07:00;;;;;;;80.97;20.95;;;11.50;99.90;;;;;;4993494;28;20047;-92
2022/10/14 03:09:26;;;;;;;109.10;21.33;;;11.50;99.90;;;;;;4961909;28;20042;-92
2022/10/14 03:11:52;;;;;;;69.45;19.30;;;11.50;99.90;;;;;;4974761;28;20100;-91
2022/10/14 03:14:18;;;;;;;95.07;21.58;;;11.50;99.90;;;;;;4974224;28;20046;-93
2022/10/14 03:16:43;;;;;;;77.15;20.95;;;11.50;99.90;;;;;;4953414;28;20065;-93
2022/10/14 03:19:09;;;;;;;54.58;19.65;;;11.50;99.90;;;;;;4973245;28;20041;-92
2022/10/14 03:21:35;;;;;;;57.35;19.52;;;11.50;99.90;;;;;;4965138;28;20046;-92
2022/10/14 03:24:00;;;;;;;79.18;21.17;;;11.50;99.90;;;;;;4981438;28;20058;-92
2022/10/14 03:26:27;;;;;;;42.17;18.38;;;11.50;99.90;;;;;;4956044;28;20046;-92
2022/10/14 03:28:53;;;;;;;111.13;23.40;;;11.50;99.90;;;;;;4979680;28;20045;-91
2022/10/14 03:31:18;;;;;;;76.97;22.23;;;11.40;99.90;;;;;;4955547;28;20034;-92
2022/10/14 03:33:44;;;;;;;56.67;20.67;;;11.50;99.90;;;;;;4977274;28;20127;-92
2022/10/14 03:36:11;;;;;;;125.22;24.00;;;11.50;99.90;;;;;;4968267;28;20047;-92
2022/10/14 03:38:37;;;;;;;93.93;24.27;;;11.50;99.90;;;;;;4978905;28;20134;-92
2022/10/14 03:41:02;;;;;;;100.00;25.52;;;11.50;99.90;;;;;;4976906;28;20039;-92
2022/10/14 03:43:28;;;;;;;88.85;25.10;;;11.50;99.90;;;;;;4966307;28;20040;-91
2022/10/14 03:45:54;;;;;;;70.13;25.48;;;11.60;99.90;;;;;;4974414;28;20042;-92
2022/10/14 03:48:20;;;;;;;79.28;26.83;;;11.60;99.90;;;;;;4978296;28;20050;-92
2022/10/14 03:50:49;;;;;;;121.65;31.10;;;11.60;99.90;;;;;;4959562;28;20142;-91
2022/10/14 03:53:14;;;;;;;96.03;29.33;;;11.60;99.90;;;;;;4962882;28;20042;-92
2022/10/14 03:55:40;;;;;;;69.97;26.38;;;11.60;99.90;;;;;;4968539;28;20042;-92
2022/10/14 03:58:06;;;;;;;102.75;27.95;;;11.60;99.90;;;;;;4972814;28;20129;-92
2022/10/14 04:00:34;;;;;;;88.75;27.52;;;11.60;99.90;;;;;;4961620;28;20448;-92
2022/10/14 04:03:00;;;;;;;88.70;28.25;;;11.60;99.90;;;;;;4962242;28;20491;-91
2022/10/14 04:05:31;;;;;;;75.82;26.10;;;11.60;99.90;;;;;;4971856;28;20089;-92
2022/10/14 04:07:56;;;;;;;65.95;25.73;;;11.60;99.90;;;;;;4985921;28;20047;-92
2022/10/14 04:10:22;;;;;;;94.50;27.27;;;11.60;99.90;;;;;;4974904;28;20038;-92
2022/10/14 04:12:49;;;;;;;63.90;25.20;;;11.60;99.90;;;;;;4984901;28;20050;-92
2022/10/14 04:15:15;;;;;;;59.45;25.23;;;11.60;99.90;;;;;;4983885;28;20053;-92
2022/10/14 04:17:41;;;;;;;67.50;26.58;;;11.60;99.90;;;;;;4966312;28;20046;-93
2022/10/14 04:20:07;;;;;;;80.32;27.75;;;11.60;99.90;;;;;;4982543;28;20034;-92
2022/10/14 04:22:32;;;;;;;70.93;27.17;;;11.60;99.90;;;;;;4974200;28;20042;-92
2022/10/14 04:24:58;;;;;;;77.78;28.20;;;11.60;99.90;;;;;;4959920;28;20478;-93
2022/10/14 04:27:24;;;;;;;84.85;29.73;;;11.70;99.90;;;;;;4981268;28;20092;-92
2022/10/14 04:29:50;;;;;;;60.78;26.92;;;11.60;99.90;;;;;;4963253;28;20047;-93
2022/10/14 04:32:16;;;;;;;74.05;29.00;;;11.60;99.90;;;;;;4961282;28;20129;-92
2022/10/14 04:34:41;;;;;;;92.10;30.58;;;11.70;99.90;;;;;;4987285;28;20177;-91
2022/10/14 04:37:07;;;;;;;96.38;29.00;;;11.70;99.90;;;;;;4980094;28;20432;-93
2022/10/14 04:39:33;;;;;;;84.90;28.67;;;11.70;99.90;;;;;;4972307;28;20125;-93
2022/10/14 04:41:58;;;;;;;67.10;27.75;;;11.70;99.90;;;;;;4965755;28;20130;-93
2022/10/14 04:44:24;;;;;;;89.22;28.75;;;11.60;99.90;;;;;;4988200;28;20026;-92
2022/10/14 04:46:50;;;;;;;67.53;28.17;;;11.70;99.90;;;;;;4979802;28;20439;-92
2022/10/14 04:49:16;;;;;;;67.45;26.60;;;11.80;99.90;;;;;;4980848;28;20104;-92
2022/10/14 04:51:42;;;;;;;99.03;30.95;;;11.70;99.90;;;;;;4973801;28;20047;-92
2022/10/14 04:54:09;;;;;;;66.53;28.05;;;11.70;99.90;;;;;;4979102;28;20721;-93
2022/10/14 04:56:35;;;;;;;63.72;26.33;;;11.70;99.90;;;;;;4985940;28;20104;-93
2022/10/14 04:59:01;;;;;;;65.70;27.35;;;11.70;99.90;;;;;;4974799;28;20435;-93
2022/10/14 05:01:26;;;;;;;64.78;27.52;;;11.70;99.90;;;;;;4964753;28;20058;-92
2022/10/14 05:03:52;;;;;;;104.22;30.63;;;11.70;99.90;;;;;;4978116;28;20057;-91
2022/10/14 05:06:18;;;;;;;67.90;27.42;;;11.70;99.90;;;;;;4968977;28;20125;-92
2022/10/14 05:08:44;;;;;;;71.82;27.67;;;11.70;99.90;;;;;;4978910;28;20049;-92
2022/10/14 05:11:09;;;;;;;85.80;28.70;;;11.70;99.90;;;;;;4981368;28;20121;-91
2022/10/14 05:13:35;;;;;;;100.47;30.63;;;11.80;99.90;;;;;;4983930;28;20162;-92
2022/10/14 05:16:01;;;;;;;122.03;30.58;;;11.70;99.90;;;;;;4974015;28;20488;-92
2022/10/14 05:18:27;;;;;;;75.63;29.33;;;11.80;99.90;;;;;;4968758;28;20117;-92
2022/10/14 05:20:53;;;;;;;109.43;30.33;;;11.80;99.90;;;;;;4985864;28;20066;-93
2022/10/14 05:23:19;;;;;;;66.20;28.45;;;11.70;99.90;;;;;;4978050;28;20043;-93
2022/10/14 05:25:45;;;;;;;79.15;27.60;;;11.70;99.90;;;;;;4974270;28;20537;-94
2022/10/14 05:28:10;;;;;;;81.35;29.45;;;11.80;99.90;;;;;;4957597;28;20153;-94
2022/10/14 05:30:36;;;;;;;62.78;27.27;;;11.80;99.90;;;;;;4963106;28;20078;-92
2022/10/14 05:33:02;;;;;;;80.72;29.42;;;11.70;99.90;;;;;;4976387;28;20046;-94
2022/10/14 05:35:27;;;;;;;72.40;28.05;;;11.80;99.90;;;;;;4979302;28;20042;-92
2022/10/14 05:37:55;;;;;;;62.15;26.48;;;11.80;99.90;;;;;;4974885;28;20046;-93
2022/10/14 05:40:22;;;;;;;94.28;29.88;;;11.70;99.90;;;;;;4977327;28;20090;-93
2022/10/14 05:42:47;;;;;;;69.45;29.80;;;11.80;99.90;;;;;;4977902;28;20026;-93
2022/10/14 05:45:13;;;;;;;72.63;31.15;;;11.70;99.90;;;;;;4965414;28;20093;-94
2022/10/14 05:47:41;;;;;;;72.38;30.88;;;11.70;99.90;;;;;;4982080;28;20157;-92
2022/10/14 05:50:07;;;;;;;57.58;29.58;;;11.70;99.90;;;;;;4994553;28;20062;-93
2022/10/14 05:52:34;;;;;;;59.50;30.08;;;11.70;99.90;;;;;;4963153;28;20047;-93
2022/10/14 05:54:59;;;;;;;61.30;31.20;;;11.70;99.90;;;;;;4977294;28;20042;-96
2022/10/14 05:57:26;;;;;;;64.90;33.00;;;11.70;99.90;;;;;;4981535;28;20046;-92
2022/10/14 05:59:52;;;;;;;70.93;33.45;;;11.70;99.90;;;;;;4988065;28;20038;-91
2022/10/14 06:02:18;;;;;;;113.90;39.42;;;11.70;99.90;;;;;;4991884;28;20023;-91
2022/10/14 06:04:44;;;;;;;75.32;35.45;;;11.80;99.90;;;;;;4967383;28;20030;-92
2022/10/14 06:07:10;;;;;;;70.68;34.28;;;11.70;99.90;;;;;;4961021;28;20042;-92
2022/10/14 06:09:37;;;;;;;77.03;36.97;;;11.80;99.90;;;;;;4992781;28;20077;-94
2022/10/14 06:12:03;;;;;;;84.72;38.13;;;11.60;99.90;;;;;;4966237;28;20054;-91
2022/10/14 06:14:29;;;;;;;70.38;37.05;;;11.70;99.90;;;;;;4973852;28;20074;-94
2022/10/14 06:16:54;;;;;;;84.90;39.80;;;11.70;99.90;;;;;;4976611;28;20069;-93
2022/10/14 06:19:21;;;;;;;87.88;39.67;;;11.80;99.90;;;;;;4983827;28;20048;-93
2022/10/14 06:21:46;;;;;;;80.75;38.50;;;11.80;99.90;;;;;;4976287;28;20080;-93
2022/10/14 06:24:12;;;;;;;66.65;36.42;;;11.70;99.90;;;;;;4971186;28;20078;-93
2022/10/14 06:26:38;;;;;;;69.43;35.42;;;11.80;99.90;;;;;;4955417;28;20042;-93
2022/10/14 06:29:03;;;;;;;73.68;35.35;;;11.80;99.90;;;;;;4978956;28;20054;-91
2022/10/14 06:31:29;;;;;;;72.47;34.50;;;11.80;99.90;;;;;;4981000;28;20310;-96
2022/10/14 06:33:55;;;;;;;65.72;34.42;;;11.80;99.90;;;;;;4983853;28;20070;-96
2022/10/14 06:36:21;;;;;;;62.85;33.78;;;11.90;99.90;;;;;;4976667;28;20046;-94
2022/10/14 06:38:47;;;;;;;69.55;34.45;;;11.90;99.90;;;;;;4978257;28;20038;-93
2022/10/14 06:41:12;;;;;;;56.90;31.90;;;11.90;99.90;;;;;;4964187;28;20062;-92
2022/10/14 06:43:38;;;;;;;76.97;35.83;;;11.90;99.90;;;;;;4976839;28;20041;-93
2022/10/14 06:46:04;;;;;;;58.20;32.22;;;11.90;99.90;;;;;;4956514;28;20050;-95
2022/10/14 06:48:30;;;;;;;56.47;31.75;;;11.90;99.90;;;;;;4974780;28;20098;-95
2022/10/14 06:51:00;;;;;;;55.80;31.10;;;11.90;99.90;;;;;;4982747;28;20133;-96
2022/10/14 06:53:27;;;;;;;59.83;31.88;;;12.00;99.90;;;;;;4969890;28;20091;-95
2022/10/14 06:56:08;;;;;;;55.20;29.95;;;12.00;99.90;;;;;;4994539;28;20043;-93
2022/10/14 06:58:33;;;;;;;;;;;12.00;99.90;;;;;;4966073;28;20042;-94
2022/10/14 07:01:04;;;;;;;52.28;28.85;;;12.00;99.90;;;;;;4954625;28;19918;-93
2022/10/14 07:03:30;;;;;;;51.10;29.15;;;12.00;99.90;;;;;;4975369;28;20042;-95
2022/10/14 07:05:56;;;;;;;55.65;28.58;;;12.10;99.90;;;;;;4967613;28;20067;-96
2022/10/14 07:08:21;;;;;;;50.92;28.15;;;12.10;99.90;;;;;;4968427;28;20050;-96
2022/10/14 07:10:47;;;;;;;51.95;28.92;;;12.10;99.90;;;;;;4972951;28;20046;-95
2022/10/14 07:13:13;;;;;;;60.30;30.80;;;12.10;99.90;;;;;;4963473;28;20046;-94
2022/10/14 07:15:39;;;;;;;52.90;29.00;;;12.10;99.90;;;;;;4977799;28;20065;-95
2022/10/14 07:18:06;;;;;;;51.92;28.27;;;12.20;99.90;;;;;;4977128;28;20042;-95
2022/10/14 07:20:33;;;;;;;46.83;28.15;;;12.20;99.90;;;;;;4967922;28;20121;-95
2022/10/14 07:22:59;;;;;;;49.13;28.73;;;12.20;99.90;;;;;;4961110;28;20035;-96
2022/10/14 07:25:24;;;;;;;47.92;28.45;;;12.20;99.90;;;;;;4966635;28;20038;-94
2022/10/14 07:27:52;;;;;;;73.88;31.42;;;12.20;99.90;;;;;;4968114;28;20130;-95
2022/10/14 07:30:18;;;;;;;49.72;28.85;;;12.20;99.90;;;;;;4985835;28;20054;-94
2022/10/14 07:32:44;;;;;;;62.03;30.77;;;12.30;99.90;;;;;;4962846;28;20434;-95
2022/10/14 07:35:09;;;;;;;87.43;32.78;;;12.30;99.90;;;;;;4967500;28;20043;-95
2022/10/14 07:37:35;;;;;;;51.22;29.17;;;12.30;99.90;;;;;;4963304;28;20042;-95
2022/10/14 07:40:01;;;;;;;51.58;29.25;;;12.40;99.90;;;;;;4972849;28;20042;-95
2022/10/14 07:42:27;;;;;;;48.80;27.95;;;12.30;99.90;;;;;;4981485;28;20041;-96
2022/10/14 07:44:53;;;;;;;45.08;27.75;;;12.30;99.90;;;;;;4984231;28;20046;-96
2022/10/14 07:47:19;;;;;;;48.85;28.63;;;12.40;99.90;;;;;;4958572;28;20509;-95
2022/10/14 07:49:45;;;;;;;48.00;28.65;;;12.40;99.90;;;;;;4988544;28;20054;-95
2022/10/14 07:52:11;;;;;;;52.97;30.10;;;12.40;99.90;;;;;;4968627;28;20077;-95
2022/10/14 07:54:37;;;;;;;46.65;27.98;;;12.50;99.90;;;;;;4967088;28;20038;-96
2022/10/14 07:57:03;;;;;;;52.58;29.55;;;12.40;99.90;;;;;;4971691;28;20050;-96
2022/10/14 07:59:28;;;;;;;51.03;29.67;;;12.40;99.90;;;;;;4972599;28;20038;-96
2022/10/14 08:01:55;;;;;;;47.33;28.00;;;12.50;99.90;;;;;;4976466;28;20045;-95
2022/10/14 08:04:21;;;;;;;47.03;28.38;;;12.50;99.90;;;;;;4964266;28;20074;-95
2022/10/14 08:06:47;;;;;;;51.65;29.88;;;12.60;99.90;;;;;;4986623;28;20046;-95
2022/10/14 08:09:13;;;;;;;51.08;29.42;;;12.60;99.90;;;;;;4963236;28;20083;-95
2022/10/14 08:11:39;;;;;;;45.85;28.45;;;12.60;99.90;;;;;;4964547;28;20063;-94
2022/10/14 08:14:06;;;;;;;48.08;29.13;;;12.70;99.90;;;;;;4987930;28;20070;-96
2022/10/14 08:16:33;;;;;;;48.80;29.95;;;12.70;99.90;;;;;;4987904;28;20038;-96
2022/10/14 08:19:04;;;;;;;50.42;30.10;;;12.70;99.90;;;;;;4982761;28;20037;-95
2022/10/14 08:21:30;;;;;;;47.20;30.40;;;12.80;99.90;;;;;;4962885;28;20121;-96
2022/10/14 08:23:56;;;;;;;49.22;30.92;;;12.80;99.90;;;;;;4968872;28;20069;-96
2022/10/14 08:26:31;;;;;;;50.13;29.05;;;12.70;99.90;;;;;;4960155;28;20046;-95
2022/10/14 08:28:58;;;;;;;48.85;29.48;;;12.70;99.90;;;;;;4982157;28;20391;-96
2022/10/14 08:31:24;;;;;;;55.30;31.17;;;12.80;99.90;;;;;;4980582;28;20046;-96
2022/10/14 08:33:57;;;;;;;53.65;31.50;;;12.80;99.90;;;;;;4966726;28;20085;-96
2022/10/14 08:36:28;;;;;;;51.58;30.00;;;12.90;99.90;;;;;;4968706;28;20038;-96
2022/10/14 08:38:54;;;;;;;51.00;30.27;;;12.80;99.90;;;;;;4983990;28;20045;-96
2022/10/14 08:41:44;;;;;;;50.17;30.90;;;12.80;99.90;;;;;;4971689;28;20042;-96
2022/10/14 08:44:21;;;;;;;60.15;31.45;;;12.90;99.90;;;;;;4981644;28;20054;-95
2022/10/14 08:46:53;;;;;;;49.35;30.33;;;12.90;99.90;;;;;;4972406;28;20043;-95
2022/10/14 09:34:52;;;;;;;65.03;37.78;;;13.20;99.90;;;;;;4944656;28;20139;-92
2022/10/14 09:37:31;;;;;;;64.47;35.47;;;13.30;99.90;;;;;;4968733;28;20127;-92
2022/10/14 09:40:12;;;;;;;60.80;35.15;;;13.20;99.90;;;;;;4946029;29;20176;-91
2022/10/14 09:42:57;;;;;;;77.38;35.92;;;13.20;99.90;;;;;;4927580;29;20098;-92
2022/10/14 09:45:25;;;;;;;61.42;34.63;;;13.30;99.90;;;;;;4946396;28;20417;-91
2022/10/14 09:47:51;;;;;;;72.13;35.22;;;13.30;99.90;;;;;;4930407;28;20119;-92
2022/10/14 09:50:45;;;;;;;60.35;33.20;;;13.30;99.90;;;;;;4926740;29;20054;-95
2022/10/14 09:53:44;;;;;;;60.33;33.03;;;13.30;99.90;;;;;;4943108;29;20055;-93
2022/10/14 09:56:11;;;;;;;54.90;31.20;;;13.30;99.90;;;;;;4935193;29;20047;-93
2022/10/14 09:58:47;;;;;;;60.28;32.20;;;13.40;99.90;;;;;;4944926;28;20043;-91
2022/10/14 10:01:21;;;;;;;55.63;31.63;;;13.30;99.90;;;;;;4957654;28;20082;-92
2022/10/14 10:03:49;;;;;;;53.53;31.52;;;13.30;99.90;;;;;;4948122;29;20127;-95
2022/10/14 10:06:20;;;;;;;90.22;34.92;;;13.30;99.90;;;;;;4951142;29;20072;-95
2022/10/14 10:08:51;;;;;;;50.58;29.80;;;13.30;99.90;;;;;;4946269;29;20049;-95
2022/10/14 10:11:36;;;;;;;53.13;30.33;;;13.30;99.90;;;;;;4956150;29;20077;-95
2022/10/14 10:14:26;;;;;;;54.85;29.08;;;13.30;99.90;;;;;;4940054;29;20043;-94
2022/10/14 10:17:15;;;;;;;57.03;29.23;;;13.30;99.90;;;;;;4955667;29;20067;-95
2022/10/14 10:19:46;;;;;;;56.88;28.92;;;13.40;99.90;;;;;;4955730;29;20051;-93
2022/10/14 10:22:30;;;;;;;47.88;26.77;;;13.40;99.90;;;;;;4955901;29;20054;-94
2022/10/14 10:25:05;;;;;;;44.08;25.33;;;13.40;99.90;;;;;;4939890;29;20110;-93
2022/10/14 10:27:37;;;;;;;50.40;26.33;;;13.40;99.90;;;;;;4939031;29;20047;-95
2022/10/14 10:30:28;;;;;;;43.88;25.10;;;13.40;99.90;;;;;;4955143;29;20042;-94
2022/10/14 10:33:24;;;;;;;45.97;25.63;;;13.40;99.90;;;;;;4937996;29;20510;-92
2022/10/14 10:36:30;;;;;;;54.75;26.05;;;13.40;99.90;;;;;;4954867;29;20054;-94
2022/10/14 10:39:01;;;;;;;38.08;22.48;;;13.40;99.90;;;;;;4953546;29;20051;-94
2022/10/14 10:41:36;;;;;;;50.88;25.95;;;13.40;99.90;;;;;;4938638;29;20118;-94
2022/10/14 10:44:17;;;;;;;38.10;22.23;;;13.40;99.90;;;;;;4939443;29;20060;-93
2022/10/14 10:46:56;;;;;;;41.92;23.90;;;13.50;99.90;;;;;;4953862;29;20130;-92
2022/10/14 10:49:42;;;;;;;44.33;25.00;;;13.50;99.90;;;;;;4938310;29;20055;-93
2022/10/14 10:52:40;;;;;;;43.25;23.67;;;13.50;99.90;;;;;;4937758;29;20374;-92
2022/10/14 10:55:30;;;;;;;37.83;22.33;;;13.60;99.90;;;;;;4936670;29;20050;-92
2022/10/14 10:58:23;;;;;;;40.95;23.02;;;13.50;99.90;;;;;;4954950;28;20488;-93
2022/10/14 11:01:07;;;;;;;37.78;23.50;;;13.50;99.90;;;;;;4957599;29;20543;-92
2022/10/14 11:03:47;;;;;;;44.22;23.00;;;13.50;99.90;;;;;;4941827;29;20472;-93
2022/10/14 11:13:15;;;;;;;34.58;21.42;;;13.60;99.90;;;;;;4958203;29;20047;-94
2022/10/14 11:15:53;;;;;;;35.30;20.85;;;13.60;99.90;;;;;;4943376;29;20047;-94
2022/10/14 11:18:37;;;;;;;34.53;20.80;;;13.60;99.90;;;;;;4953871;29;20082;-94
2022/10/14 11:21:12;;;;;;;35.38;21.60;;;13.70;99.90;;;;;;4963048;29;20102;-92
2022/10/14 11:23:53;;;;;;;35.33;21.50;;;13.70;99.90;;;;;;4958215;28;20047;-92
2022/10/14 11:26:51;;;;;;;40.55;22.58;;;13.70;99.90;;;;;;4956917;28;20043;-92
2022/10/14 11:29:36;;;;;;;51.33;25.52;;;13.80;99.90;;;;;;4957431;28;20039;-92
2022/10/14 11:32:10;;;;;;;45.20;25.30;;;13.70;99.90;;;;;;4940767;29;20027;-92
2022/10/14 11:34:42;;;;;;;61.15;31.42;;;13.80;99.90;;;;;;4956406;29;20118;-93
2022/10/14 11:37:47;;;;;;;81.50;32.28;;;13.80;99.90;;;;;;4940595;29;20039;-92
2022/10/14 11:40:12;;;;;;;68.50;33.30;;;13.80;99.90;;;;;;4940239;29;20090;-92
2022/10/14 11:42:47;;;;;;;61.70;32.10;;;13.80;99.90;;;;;;4956444;29;20074;-92
2022/10/14 11:45:16;;;;;;;54.97;30.40;;;13.80;99.90;;;;;;4939891;29;20094;-93
2022/10/14 11:47:46;;;;;;;56.97;33.33;;;13.80;99.90;;;;;;4957176;29;20092;-92
2022/10/14 11:50:17;;;;;;;70.47;36.53;;;13.90;99.90;;;;;;4939998;29;20083;-92
2022/10/14 11:53:15;;;;;;;57.42;34.20;;;14.00;99.90;;;;;;4957272;28;20073;-91
2022/10/14 11:56:08;;;;;;;115.07;42.55;;;14.00;99.90;;;;;;4955025;29;20114;-92
2022/10/14 11:58:36;;;;;;;69.38;38.05;;;14.00;99.90;;;;;;4939747;29;20057;-92
2022/10/14 12:01:04;;;;;;;73.25;38.20;;;14.00;99.90;;;;;;4955910;29;20052;-92
2022/10/14 12:03:58;;;;;;;87.82;42.55;;;14.10;99.90;;;;;;4956565;29;20382;-91
2022/10/14 12:06:37;;;;;;;63.25;37.40;;;14.10;99.90;;;;;;4940023;29;20062;-92
2022/10/14 12:09:15;;;;;;;78.45;39.78;;;14.10;99.90;;;;;;4937686;29;20039;-93
2022/10/14 12:12:07;;;;;;;69.68;39.67;;;14.10;99.90;;;;;;4939425;29;20051;-91
2022/10/14 12:15:04;;;;;;;67.63;38.60;;;14.10;99.90;;;;;;4954799;29;20670;-91
2022/10/14 12:17:57;;;;;;;67.82;40.08;;;14.10;99.90;;;;;;4954463;29;20378;-92
2022/10/14 12:20:43;;;;;;;101.85;41.88;;;14.20;99.90;;;;;;4955008;29;20035;-91
2022/10/14 12:23:15;;;;;;;72.07;40.03;;;14.30;99.90;;;;;;4956409;28;20051;-91
2022/10/14 12:26:02;;;;;;;72.32;41.05;;;14.30;99.90;;;;;;4938997;29;20050;-91
2022/10/14 12:28:28;;;;;;;69.22;40.38;;;14.30;99.90;;;;;;4938676;29;20129;-91
2022/10/14 12:31:34;;;;;;;73.93;40.00;;;14.30;99.90;;;;;;4955240;29;20075;-92
2022/10/14 12:34:12;;;;;;;61.53;35.85;;;14.40;99.90;;;;;;4954563;29;20066;-92
2022/10/14 12:36:46;;;;;;;59.95;37.58;;;14.40;99.90;;;;;;4940726;29;20094;-91
2022/10/14 12:39:18;;;;;;;67.07;36.97;;;14.40;99.90;;;;;;4960701;28;20121;-91
2022/10/14 12:42:04;;;;;;;54.25;35.70;;;14.60;99.90;;;;;;4943907;29;20043;-91
2022/10/14 12:44:55;;;;;;;58.33;34.60;;;14.50;99.90;;;;;;4939231;29;20061;-91
2022/10/14 12:47:42;;;;;;;54.92;33.47;;;14.60;99.90;;;;;;4953888;29;20055;-91
2022/10/14 12:50:14;;;;;;;49.00;31.88;;;14.70;99.90;;;;;;4955745;29;20051;-91
2022/10/14 12:52:46;;;;;;;42.80;29.33;;;14.70;99.90;;;;;;4954956;29;20280;-91
2022/10/14 12:55:18;;;;;;;41.55;28.20;;;14.70;99.90;;;;;;4959656;29;20105;-91
2022/10/14 12:57:59;;;;;;;39.85;28.77;;;14.80;99.90;;;;;;4958220;29;20046;-91
2022/10/14 13:00:24;;;;;;;36.50;27.13;;;14.80;99.90;;;;;;4955787;28;20046;-91
2022/10/14 13:02:58;;;;;;;33.55;25.92;;;14.80;99.90;;;;;;4954210;29;20051;-91
2022/10/14 13:05:34;;;;;;;30.25;24.02;;;14.80;99.90;;;;;;4954149;29;20459;-92
2022/10/14 13:08:18;;;;;;;28.55;23.10;;;14.80;99.90;;;;;;4953923;29;20134;-92
2022/10/14 13:10:49;;;;;;;29.38;23.63;;;14.80;99.90;;;;;;4953389;29;20040;-92
2022/10/14 13:13:36;;;;;;;27.92;22.08;;;14.90;99.90;;;;;;4954156;29;20374;-92
2022/10/14 13:16:02;;;;;;;25.05;20.48;;;14.90;99.90;;;;;;4954737;29;20420;-92
2022/10/14 13:18:32;;;;;;;24.35;20.45;;;15.10;99.90;;;;;;4953781;29;20035;-94
2022/10/14 13:20:58;;;;;;;25.77;20.85;;;15.10;99.90;;;;;;4938054;29;20039;-92
2022/10/14 13:23:35;;;;;;;24.05;20.17;;;15.10;99.90;;;;;;4938380;29;20089;-92
2022/10/14 13:26:32;;;;;;;21.77;19.45;;;15.20;99.90;;;;;;4955263;29;20063;-92
2022/10/14 13:29:25;;;;;;;24.08;19.45;;;15.20;99.90;;;;;;4957644;28;20382;-93
2022/10/14 13:32:10;;;;;;;22.50;18.45;;;15.10;99.90;;;;;;4966111;29;20051;-93
2022/10/14 13:35:06;;;;;;;23.88;19.45;;;15.10;99.90;;;;;;4955319;29;20055;-93
2022/10/14 13:37:43;;;;;;;21.25;18.77;;;15.10;99.90;;;;;;4938706;29;20090;-95
2022/10/14 13:40:33;;;;;;;21.90;19.10;;;15.20;99.90;;;;;;4939391;29;20043;-93
2022/10/14 13:43:00;;;;;;;22.33;19.17;;;15.30;99.90;;;;;;4939941;29;20094;-93